Time;durP1;ratioP1;P1;durP2;ratioP2;P2;SDS_P1;SDS_P2;PMS_P1;PMS_P2;Temp;Humidity;BMP_temperature;BMP_pressure;BME280_temperature;BME280_humidity;BME280_pressure;Samples;Min_cycle;Max_cycle;Signal;HPM_P1;HPM_P2
2022/01/07 00:02:07;;;;;;;18.65;4.07;;;23.50;93.80;;;;;;5032842;28;20041;-69
2022/01/07 00:04:35;;;;;;;22.60;4.18;;;23.50;93.90;;;;;;5015487;28;20384;-69
2022/01/07 00:07:06;;;;;;;18.13;3.90;;;23.50;93.90;;;;;;5015852;28;20029;-70
2022/01/07 00:09:33;;;;;;;25.58;4.50;;;23.60;94.00;;;;;;5032940;28;20029;-69
2022/01/07 00:12:00;;;;;;;24.98;4.82;;;23.60;94.10;;;;;;5032544;28;20045;-69
2022/01/07 00:14:27;;;;;;;24.63;5.45;;;23.70;94.00;;;;;;5032448;28;20034;-68
2022/01/07 00:16:54;;;;;;;25.73;4.80;;;23.70;93.80;;;;;;5033168;28;20029;-68
2022/01/07 00:19:22;;;;;;;32.15;5.93;;;23.70;93.80;;;;;;5032747;28;20080;-69
2022/01/07 00:21:49;;;;;;;30.85;6.05;;;23.70;93.80;;;;;;5014644;28;20076;-68
2022/01/07 00:24:16;;;;;;;32.65;6.82;;;23.80;93.80;;;;;;5032755;28;20022;-69
2022/01/07 00:26:43;;;;;;;28.13;5.65;;;23.80;93.50;;;;;;5032354;28;20053;-69
2022/01/07 00:29:12;;;;;;;35.33;6.32;;;23.80;93.30;;;;;;5032497;28;20369;-69
2022/01/07 00:31:39;;;;;;;30.60;5.35;;;23.80;93.20;;;;;;5032340;28;20026;-69
2022/01/07 00:34:06;;;;;;;22.98;5.50;;;23.80;93.10;;;;;;5032547;28;20449;-69
2022/01/07 00:36:33;;;;;;;25.95;5.43;;;23.80;93.10;;;;;;5031371;28;20028;-69
2022/01/07 00:39:00;;;;;;;27.45;5.53;;;23.80;93.00;;;;;;5032308;28;20033;-69
2022/01/07 00:41:28;;;;;;;27.25;5.13;;;23.80;92.90;;;;;;5032075;28;20052;-69
2022/01/07 00:43:55;;;;;;;29.85;5.65;;;23.90;92.60;;;;;;5032372;28;20033;-69
2022/01/07 00:46:22;;;;;;;35.03;6.07;;;23.90;92.50;;;;;;5032242;28;20022;-69
2022/01/07 00:48:49;;;;;;;28.92;6.03;;;23.90;92.10;;;;;;5032204;28;20041;-69
2022/01/07 00:51:16;;;;;;;36.08;5.93;;;23.90;92.30;;;;;;5031979;28;20061;-69
2022/01/07 00:53:43;;;;;;;28.15;5.20;;;23.90;91.50;;;;;;5032066;28;20029;-69
2022/01/07 00:56:13;;;;;;;;;;;23.90;92.00;;;;;;5032476;28;20058;-69
2022/01/07 00:58:40;;;;;;;28.55;4.88;;;24.00;92.00;;;;;;5032045;28;19905;-69
2022/01/07 01:01:07;;;;;;;24.80;4.97;;;24.00;92.10;;;;;;5031651;28;20024;-67
2022/01/07 01:03:34;;;;;;;35.47;6.40;;;24.00;91.30;;;;;;5031990;28;20064;-68
2022/01/07 01:06:01;;;;;;;32.55;6.00;;;24.10;91.20;;;;;;5031826;28;20053;-68
2022/01/07 01:08:29;;;;;;;36.10;6.50;;;24.10;91.20;;;;;;5031853;28;20025;-68
2022/01/07 01:10:56;;;;;;;28.55;4.60;;;24.10;91.00;;;;;;5030431;28;20476;-68
2022/01/07 01:13:23;;;;;;;38.33;7.75;;;24.10;90.80;;;;;;5014254;28;20059;-68
2022/01/07 01:15:50;;;;;;;25.90;5.50;;;24.20;90.90;;;;;;5031815;28;20491;-68
2022/01/07 01:18:18;;;;;;;35.25;5.88;;;24.20;90.70;;;;;;5031756;28;20054;-69
2022/01/07 01:20:45;;;;;;;33.30;5.30;;;24.20;90.40;;;;;;5031543;28;20423;-68
2022/01/07 01:23:12;;;;;;;28.63;5.80;;;24.20;90.60;;;;;;5013942;28;20017;-69
2022/01/07 01:25:39;;;;;;;38.90;6.07;;;24.30;90.00;;;;;;5031291;28;20148;-69
2022/01/07 01:28:06;;;;;;;24.90;5.75;;;24.30;89.80;;;;;;5013554;28;20021;-69
2022/01/07 01:30:35;;;;;;;32.15;6.30;;;24.30;90.10;;;;;;5031437;28;20108;-69
2022/01/07 01:33:02;;;;;;;26.70;5.18;;;24.40;90.00;;;;;;5031514;28;20065;-69
2022/01/07 01:35:29;;;;;;;28.00;5.32;;;24.50;89.70;;;;;;5031549;28;20032;-68
2022/01/07 01:37:56;;;;;;;33.97;5.45;;;24.50;89.10;;;;;;5031754;28;20480;-68
2022/01/07 01:40:24;;;;;;;34.30;6.47;;;24.50;89.00;;;;;;5031287;28;20433;-68
2022/01/07 01:42:54;;;;;;;28.17;6.32;;;24.50;89.00;;;;;;5031552;28;20048;-68
2022/01/07 01:45:21;;;;;;;28.98;4.55;;;24.50;88.70;;;;;;5031381;28;20022;-69
2022/01/07 01:47:49;;;;;;;26.15;5.38;;;24.50;88.50;;;;;;5031466;28;20026;-69
2022/01/07 01:50:16;;;;;;;31.48;5.88;;;24.50;88.50;;;;;;5013578;28;20018;-69
2022/01/07 01:52:53;;;;;;;22.50;5.03;;;24.50;88.50;;;;;;5030968;28;20448;-69
2022/01/07 01:55:20;;;;;;;27.35;5.30;;;24.60;88.60;;;;;;5030277;28;20024;-69
2022/01/07 01:57:47;;;;;;;28.63;5.90;;;24.70;88.60;;;;;;5031335;28;20388;-69
2022/01/07 02:00:15;;;;;;;27.75;5.00;;;24.70;88.50;;;;;;5031294;28;20022;-69
2022/01/07 02:02:42;;;;;;;35.38;5.72;;;24.80;88.30;;;;;;5031309;28;20088;-69
2022/01/07 02:05:10;;;;;;;30.08;5.30;;;24.80;87.20;;;;;;5031428;28;20028;-69
2022/01/07 02:07:39;;;;;;;27.73;4.80;;;24.80;87.50;;;;;;5031351;28;20034;-69
2022/01/07 02:10:12;;;;;;;26.92;5.70;;;24.90;87.60;;;;;;5031148;28;20025;-69
2022/01/07 02:12:39;;;;;;;21.00;4.63;;;25.00;87.60;;;;;;5013384;28;20068;-68
2022/01/07 02:15:07;;;;;;;28.42;4.97;;;25.00;87.10;;;;;;5031453;28;20105;-68
2022/01/07 02:17:35;;;;;;;22.98;4.57;;;25.00;86.90;;;;;;5031120;28;20048;-68
2022/01/07 02:20:02;;;;;;;27.83;5.72;;;25.00;87.10;;;;;;5031061;28;20032;-69
2022/01/07 02:22:29;;;;;;;31.73;6.38;;;25.00;86.90;;;;;;5030955;28;20029;-68
2022/01/07 02:24:56;;;;;;;22.27;4.57;;;25.00;87.30;;;;;;5029757;28;20048;-68
2022/01/07 02:27:23;;;;;;;30.15;5.47;;;25.00;87.00;;;;;;5031160;28;20013;-68
2022/01/07 02:29:51;;;;;;;32.47;7.47;;;25.00;86.90;;;;;;5013457;28;20029;-68
2022/01/07 02:32:19;;;;;;;23.98;4.50;;;25.00;87.20;;;;;;5030548;28;20087;-67
2022/01/07 02:34:47;;;;;;;28.70;5.55;;;25.00;86.80;;;;;;5030662;28;20023;-68
2022/01/07 02:37:15;;;;;;;23.20;5.05;;;25.00;86.50;;;;;;5031250;28;20028;-68
2022/01/07 02:39:42;;;;;;;22.95;5.03;;;24.90;86.40;;;;;;5017103;28;20053;-68
2022/01/07 02:42:09;;;;;;;26.08;5.15;;;24.90;86.40;;;;;;5034809;28;20045;-67
2022/01/07 02:44:36;;;;;;;25.13;5.43;;;24.80;86.50;;;;;;5034627;28;20057;-68
2022/01/07 02:47:04;;;;;;;25.42;5.50;;;24.80;86.80;;;;;;5034501;28;20017;-68
2022/01/07 02:49:31;;;;;;;23.60;5.10;;;24.90;86.70;;;;;;5034450;28;20018;-68
2022/01/07 02:51:58;;;;;;;27.35;5.15;;;25.00;86.90;;;;;;5034151;28;20060;-68
2022/01/07 02:54:25;;;;;;;37.38;7.50;;;25.00;86.70;;;;;;5034496;28;20013;-69
2022/01/07 02:56:52;;;;;;;32.72;5.82;;;25.00;87.20;;;;;;5016638;28;20096;-69
2022/01/07 02:59:20;;;;;;;23.33;4.68;;;25.00;86.60;;;;;;5034117;28;20029;-69
2022/01/07 03:01:47;;;;;;;23.25;5.03;;;25.00;86.70;;;;;;5034176;28;20406;-68
2022/01/07 03:04:14;;;;;;;24.90;4.53;;;25.10;86.60;;;;;;5034136;28;20025;-68
2022/01/07 03:06:41;;;;;;;31.70;6.45;;;25.10;86.60;;;;;;5034005;28;20387;-68
2022/01/07 03:09:08;;;;;;;43.83;7.63;;;25.10;86.60;;;;;;5033560;28;20391;-68
2022/01/07 03:11:36;;;;;;;31.33;5.57;;;25.10;87.10;;;;;;5033692;28;20112;-69
2022/01/07 03:14:03;;;;;;;46.25;7.00;;;25.10;86.20;;;;;;5033922;28;20070;-69
2022/01/07 03:16:30;;;;;;;29.95;5.85;;;25.10;86.40;;;;;;5034143;28;20125;-69
2022/01/07 03:18:57;;;;;;;27.67;5.82;;;25.20;86.40;;;;;;5033785;28;20131;-68
2022/01/07 03:21:24;;;;;;;25.83;5.82;;;25.20;85.80;;;;;;5016236;28;20112;-69
2022/01/07 03:23:52;;;;;;;29.58;5.70;;;25.20;85.90;;;;;;5033891;28;20379;-68
2022/01/07 03:26:19;;;;;;;30.45;6.32;;;25.20;86.00;;;;;;5033614;28;20117;-69
2022/01/07 03:28:48;;;;;;;32.53;5.78;;;25.30;85.70;;;;;;5033445;28;20032;-69
2022/01/07 03:31:15;;;;;;;32.22;5.55;;;25.30;85.40;;;;;;5033456;28;20025;-69
2022/01/07 03:33:42;;;;;;;28.02;5.85;;;25.40;85.70;;;;;;5033834;28;20029;-69
2022/01/07 03:36:09;;;;;;;36.03;6.60;;;25.40;85.50;;;;;;5033742;28;20029;-69
2022/01/07 03:38:36;;;;;;;34.42;5.07;;;25.50;85.30;;;;;;5033557;28;20059;-68
2022/01/07 03:41:04;;;;;;;29.17;5.18;;;25.50;84.90;;;;;;5032025;28;20043;-68
2022/01/07 03:43:31;;;;;;;21.90;4.63;;;25.50;84.90;;;;;;5033375;28;20029;-69
2022/01/07 03:45:58;;;;;;;27.95;5.95;;;25.40;84.70;;;;;;5015534;28;20056;-69
2022/01/07 03:48:28;;;;;;;23.92;4.57;;;25.50;84.90;;;;;;5033272;28;20057;-68
2022/01/07 03:50:55;;;;;;;20.60;4.50;;;25.50;84.70;;;;;;5032579;28;20496;-69
2022/01/07 03:53:25;;;;;;;33.28;5.90;;;25.50;84.80;;;;;;5031800;28;20087;-69
2022/01/07 03:55:53;;;;;;;26.90;4.90;;;25.50;84.90;;;;;;5032753;28;20056;-69
2022/01/07 03:58:20;;;;;;;29.15;5.50;;;25.50;84.30;;;;;;5032754;28;20086;-69
2022/01/07 04:00:47;;;;;;;21.73;5.43;;;25.60;84.30;;;;;;5032505;28;20047;-69
2022/01/07 04:03:16;;;;;;;21.48;4.57;;;25.60;84.70;;;;;;5032873;28;20018;-68
2022/01/07 04:05:44;;;;;;;18.57;4.83;;;25.60;84.50;;;;;;5032920;28;20033;-68
2022/01/07 04:08:11;;;;;;;22.58;4.97;;;25.60;84.30;;;;;;5032912;28;20022;-68
2022/01/07 04:10:38;;;;;;;36.45;6.00;;;25.60;84.30;;;;;;5032521;28;20513;-68
2022/01/07 04:13:05;;;;;;;27.60;5.60;;;25.60;84.50;;;;;;5032647;28;20039;-69
2022/01/07 04:15:33;;;;;;;30.83;5.22;;;25.50;84.10;;;;;;5031549;28;20025;-69
2022/01/07 04:18:00;;;;;;;26.42;5.10;;;25.50;84.30;;;;;;5014912;28;20045;-68
2022/01/07 04:20:29;;;;;;;25.65;5.30;;;25.60;84.50;;;;;;5014615;28;20034;-69
2022/01/07 04:22:56;;;;;;;23.00;5.28;;;25.50;84.50;;;;;;5032822;28;20021;-69
2022/01/07 04:25:24;;;;;;;26.02;5.03;;;25.60;84.20;;;;;;5032521;28;20049;-68
2022/01/07 04:28:01;;;;;;;31.90;5.28;;;25.60;84.50;;;;;;5014820;28;20029;-69
2022/01/07 04:30:34;;;;;;;33.92;5.90;;;25.60;84.30;;;;;;5032555;28;20044;-68
2022/01/07 04:33:03;;;;;;;29.52;6.07;;;25.60;84.50;;;;;;5032182;28;20033;-69
2022/01/07 04:35:30;;;;;;;32.70;5.93;;;25.60;84.60;;;;;;5031382;28;20040;-68
2022/01/07 04:37:58;;;;;;;25.63;5.43;;;25.60;84.60;;;;;;5015088;28;20028;-68
2022/01/07 04:40:27;;;;;;;28.55;5.68;;;25.50;84.30;;;;;;5032358;28;20025;-68
2022/01/07 04:42:54;;;;;;;28.88;6.88;;;25.40;84.00;;;;;;5032385;28;20439;-68
2022/01/07 04:45:21;;;;;;;28.85;6.00;;;25.40;84.70;;;;;;5014612;28;20029;-67
2022/01/07 04:47:49;;;;;;;26.48;5.60;;;25.40;84.70;;;;;;5032224;28;20025;-68
2022/01/07 04:50:17;;;;;;;30.88;6.13;;;25.40;84.70;;;;;;5032609;28;20052;-68
2022/01/07 04:52:45;;;;;;;27.13;5.70;;;25.50;84.30;;;;;;5032195;28;20036;-68
2022/01/07 04:55:16;;;;;;;34.72;7.20;;;25.50;84.60;;;;;;5014604;28;20070;-68
2022/01/07 04:57:44;;;;;;;35.28;7.25;;;25.50;84.60;;;;;;5014625;28;20091;-68
2022/01/07 05:00:12;;;;;;;28.70;5.70;;;25.50;84.40;;;;;;5030858;28;20105;-67
2022/01/07 05:02:39;;;;;;;28.08;5.22;;;25.40;84.40;;;;;;5031072;28;20403;-70
2022/01/07 05:05:07;;;;;;;25.52;6.10;;;25.40;84.50;;;;;;5032099;28;20049;-68
2022/01/07 05:07:37;;;;;;;36.42;5.97;;;25.40;84.20;;;;;;5030765;28;20028;-68
2022/01/07 05:10:06;;;;;;;30.30;5.78;;;25.40;84.40;;;;;;5031766;28;20028;-68
2022/01/07 05:12:33;;;;;;;21.23;4.90;;;25.30;84.60;;;;;;5014082;28;20060;-69
2022/01/07 05:15:01;;;;;;;31.75;6.35;;;25.30;84.40;;;;;;4997804;28;20032;-69
2022/01/07 05:17:28;;;;;;;31.92;6.10;;;25.30;84.60;;;;;;5014075;28;20112;-69
2022/01/07 05:19:55;;;;;;;30.83;5.78;;;25.30;84.60;;;;;;5031672;28;20092;-69
2022/01/07 05:22:22;;;;;;;31.23;6.03;;;25.30;84.60;;;;;;5031877;28;20037;-69
2022/01/07 05:24:49;;;;;;;26.70;5.82;;;25.30;84.60;;;;;;5031916;28;20388;-68
2022/01/07 05:27:17;;;;;;;29.23;6.50;;;25.30;84.70;;;;;;5031683;28;20100;-68
2022/01/07 05:29:47;;;;;;;28.17;6.70;;;25.30;84.60;;;;;;5031881;28;20029;-69
2022/01/07 05:32:14;;;;;;;37.72;6.65;;;25.30;84.60;;;;;;5031474;28;20462;-69
2022/01/07 05:34:41;;;;;;;33.25;5.95;;;25.30;84.20;;;;;;5014146;28;20082;-68
2022/01/07 05:37:10;;;;;;;31.55;5.93;;;25.30;84.20;;;;;;5031425;28;20014;-68
2022/01/07 05:39:37;;;;;;;39.05;6.45;;;25.30;84.50;;;;;;5030265;28;20057;-68
2022/01/07 05:42:05;;;;;;;39.88;6.55;;;25.30;84.50;;;;;;5031835;28;20060;-69
2022/01/07 05:44:33;;;;;;;28.05;5.65;;;25.30;84.50;;;;;;5030432;28;20026;-69
2022/01/07 05:47:00;;;;;;;35.75;6.40;;;25.30;84.50;;;;;;5029426;28;20037;-69
2022/01/07 05:49:27;;;;;;;26.27;4.97;;;25.20;84.40;;;;;;5030342;28;20041;-68
2022/01/07 05:51:54;;;;;;;26.88;6.10;;;25.20;84.30;;;;;;5013548;28;20416;-67
2022/01/07 05:54:22;;;;;;;37.28;6.40;;;25.20;84.70;;;;;;5031689;28;20052;-68
2022/01/07 05:56:50;;;;;;;34.13;6.45;;;25.20;84.40;;;;;;4997636;28;20032;-68
2022/01/07 05:59:18;;;;;;;34.53;6.90;;;25.20;84.60;;;;;;5014170;28;20063;-69
2022/01/07 06:01:47;;;;;;;29.95;5.75;;;25.20;84.60;;;;;;5031552;28;20422;-69
2022/01/07 06:04:14;;;;;;;33.10;6.63;;;25.20;84.70;;;;;;5031368;28;20057;-69
2022/01/07 06:06:44;;;;;;;34.28;5.85;;;25.20;84.30;;;;;;5030065;28;20036;-69
2022/01/07 06:09:12;;;;;;;39.72;6.38;;;25.20;84.50;;;;;;5013783;28;20077;-69
2022/01/07 06:11:39;;;;;;;31.17;5.82;;;25.20;84.90;;;;;;5031316;28;20127;-68
2022/01/07 06:14:06;;;;;;;29.48;6.53;;;25.10;84.70;;;;;;5034456;28;20029;-68
2022/01/07 06:16:34;;;;;;;32.13;6.30;;;25.20;84.70;;;;;;5035098;28;20033;-68
2022/01/07 06:19:01;;;;;;;38.40;7.65;;;25.20;84.50;;;;;;5017295;28;20388;-68
2022/01/07 06:21:30;;;;;;;35.35;6.88;;;25.10;84.40;;;;;;5034767;28;20045;-68
2022/01/07 06:23:57;;;;;;;36.83;7.97;;;25.10;84.50;;;;;;5035265;28;20025;-68
2022/01/07 06:26:24;;;;;;;31.00;6.55;;;25.10;84.70;;;;;;5035046;28;20026;-68
2022/01/07 06:28:51;;;;;;;35.95;6.80;;;25.10;84.60;;;;;;5017065;28;20033;-67
2022/01/07 06:31:19;;;;;;;33.42;7.13;;;25.00;84.60;;;;;;5034816;28;20021;-68
2022/01/07 06:33:46;;;;;;;30.48;6.38;;;25.00;84.70;;;;;;5034802;28;20113;-67
2022/01/07 06:36:13;;;;;;;34.33;6.65;;;25.10;84.50;;;;;;5035045;28;20033;-68
2022/01/07 06:38:40;;;;;;;30.55;6.03;;;25.00;84.50;;;;;;5034763;28;20029;-68
2022/01/07 06:41:08;;;;;;;31.25;6.18;;;25.00;84.50;;;;;;5017145;28;20121;-67
2022/01/07 06:43:41;;;;;;;37.45;7.70;;;25.00;85.00;;;;;;5033358;28;20104;-68
2022/01/07 06:46:08;;;;;;;;;;;25.10;84.70;;;;;;5034803;28;20423;-68
2022/01/07 06:48:35;;;;;;;56.75;12.15;;;25.10;84.70;;;;;;5034594;28;19905;-68
2022/01/07 06:51:03;;;;;;;31.92;7.10;;;25.00;84.70;;;;;;5034454;28;20037;-68
2022/01/07 06:53:30;;;;;;;37.35;6.93;;;25.00;84.80;;;;;;5034098;28;20396;-68
2022/01/07 06:55:58;;;;;;;34.92;6.22;;;25.00;84.80;;;;;;5034708;28;20044;-69
2022/01/07 06:58:25;;;;;;;33.88;6.78;;;25.00;84.70;;;;;;5034601;28;20018;-69
2022/01/07 07:00:54;;;;;;;32.22;6.75;;;25.00;84.80;;;;;;5034388;28;20035;-68
2022/01/07 07:03:21;;;;;;;30.27;5.95;;;25.00;84.70;;;;;;5034268;28;20045;-68
2022/01/07 07:05:48;;;;;;;33.33;6.28;;;25.00;84.90;;;;;;5016532;28;20438;-69
2022/01/07 07:08:16;;;;;;;32.03;6.97;;;25.00;85.00;;;;;;5034112;28;20032;-68
2022/01/07 07:10:43;;;;;;;43.67;6.43;;;25.00;84.60;;;;;;5032812;28;20021;-69
2022/01/07 07:13:15;;;;;;;26.90;5.47;;;25.00;84.60;;;;;;5033739;28;20045;-69
2022/01/07 07:15:42;;;;;;;33.60;6.60;;;25.00;84.60;;;;;;5034098;28;20029;-69
2022/01/07 07:18:09;;;;;;;36.47;6.15;;;25.00;84.50;;;;;;5033921;28;20093;-69
2022/01/07 07:20:40;;;;;;;;;;;25.00;84.70;;;;;;5034152;28;20048;-68
2022/01/07 07:23:07;;;;;;;36.90;6.78;;;25.00;84.60;;;;;;5032671;28;19916;-68
2022/01/07 07:25:36;;;;;;;27.20;5.53;;;25.00;84.30;;;;;;5032819;28;20013;-69
2022/01/07 07:28:03;;;;;;;31.85;5.18;;;25.00;84.50;;;;;;5016205;28;20396;-68
2022/01/07 07:30:36;;;;;;;34.60;6.53;;;25.00;84.40;;;;;;5030381;28;20478;-68
2022/01/07 07:38:35;;;;;;;31.20;6.10;;;25.00;84.20;;;;;;5033973;28;20053;-69
2022/01/07 07:41:02;;;;;;;36.65;5.78;;;24.90;84.20;;;;;;5033504;28;20017;-69
2022/01/07 07:43:30;;;;;;;26.40;6.10;;;24.90;84.10;;;;;;5033824;28;20017;-68
2022/01/07 07:45:57;;;;;;;32.45;7.43;;;24.90;84.40;;;;;;5033566;28;20021;-68
2022/01/07 07:48:27;;;;;;;22.20;4.72;;;24.90;84.40;;;;;;5033478;28;20036;-68
2022/01/07 07:50:54;;;;;;;33.58;7.00;;;25.00;84.50;;;;;;5032896;28;20033;-68
2022/01/07 07:53:21;;;;;;;36.38;5.95;;;24.90;84.50;;;;;;5033385;28;20384;-68
2022/01/07 07:55:53;;;;;;;32.35;6.38;;;24.90;84.20;;;;;;5031968;28;20104;-68
2022/01/07 07:58:21;;;;;;;25.95;6.10;;;24.80;84.40;;;;;;5033086;28;20480;-69
2022/01/07 08:00:52;;;;;;;28.33;5.47;;;24.90;84.60;;;;;;5033337;28;20104;-67
2022/01/07 08:03:24;;;;;;;24.98;6.18;;;24.80;84.60;;;;;;5033165;28;20028;-67
2022/01/07 08:05:51;;;;;;;38.85;6.97;;;24.80;84.50;;;;;;5033124;28;20021;-67
2022/01/07 08:08:20;;;;;;;28.23;5.60;;;24.80;84.60;;;;;;5032758;28;20038;-68
2022/01/07 08:10:53;;;;;;;30.15;5.90;;;24.80;84.60;;;;;;5031622;28;20029;-67
2022/01/07 08:15:57;;;;;;;31.70;5.78;;;24.80;84.60;;;;;;5016228;28;20494;-67
2022/01/07 08:16:19;;;;;;;29.75;5.65;;;24.80;84.80;;;;;;5032676;28;20041;-67
2022/01/07 08:18:49;;;;;;;29.63;5.65;;;24.70;84.90;;;;;;5015069;28;20129;-68
2022/01/07 08:21:17;;;;;;;32.38;6.50;;;24.70;85.10;;;;;;5032254;28;20029;-68
2022/01/07 08:23:44;;;;;;;32.25;6.28;;;24.70;85.10;;;;;;5032610;28;20025;-68
2022/01/07 08:26:13;;;;;;;30.02;5.75;;;24.70;85.20;;;;;;5030909;28;20026;-68
2022/01/07 08:29:16;;;;;;;33.85;6.22;;;24.60;85.10;;;;;;5032392;28;20049;-67
2022/01/07 08:36:58;;;;;;;34.03;6.70;;;24.60;85.30;;;;;;5032070;28;20036;-68
2022/01/07 08:39:28;;;;;;;31.30;6.43;;;24.60;85.30;;;;;;5031343;28;20034;-68
2022/01/07 08:41:55;;;;;;;24.73;5.80;;;24.60;85.40;;;;;;5031861;28;20135;-67
2022/01/07 08:44:24;;;;;;;32.90;7.25;;;24.50;85.40;;;;;;5032925;28;20051;-69
2022/01/07 08:46:52;;;;;;;26.83;5.60;;;24.50;85.40;;;;;;5032436;28;20392;-69
2022/01/07 08:49:19;;;;;;;31.52;5.38;;;24.50;85.50;;;;;;5032457;28;20014;-68
2022/01/07 08:51:46;;;;;;;30.02;7.03;;;24.50;85.10;;;;;;5031899;28;20025;-69
2022/01/07 08:54:13;;;;;;;31.85;5.72;;;24.50;85.50;;;;;;5032051;28;20143;-68
2022/01/07 08:56:40;;;;;;;24.67;5.20;;;24.50;85.20;;;;;;5014545;28;20104;-69
2022/01/07 08:59:08;;;;;;;26.63;5.72;;;24.40;85.10;;;;;;5032445;28;20029;-69
2022/01/07 09:01:35;;;;;;;33.67;5.88;;;24.40;85.10;;;;;;5031708;28;20079;-69
2022/01/07 09:04:02;;;;;;;33.75;6.57;;;24.40;85.00;;;;;;5032089;28;20105;-68
2022/01/07 09:06:35;;;;;;;30.50;6.28;;;24.40;85.10;;;;;;5032006;28;20040;-69
2022/01/07 09:09:02;;;;;;;27.92;5.90;;;24.50;85.00;;;;;;5032098;28;20075;-69
2022/01/07 09:11:30;;;;;;;34.42;6.22;;;24.40;85.00;;;;;;5032023;28;20021;-69
2022/01/07 09:13:58;;;;;;;28.77;6.10;;;24.40;85.00;;;;;;5013236;28;20172;-69
2022/01/07 09:16:26;;;;;;;29.85;5.93;;;24.40;85.00;;;;;;5031581;28;20026;-69
2022/01/07 09:18:53;;;;;;;23.10;5.93;;;24.40;85.00;;;;;;5014023;28;20060;-70
2022/01/07 09:21:20;;;;;;;38.25;6.90;;;24.40;85.20;;;;;;5031560;28;20029;-69
2022/01/07 09:23:48;;;;;;;31.45;6.20;;;24.40;85.10;;;;;;5030536;28;20029;-69
2022/01/07 09:26:15;;;;;;;32.90;5.82;;;24.40;85.10;;;;;;5014090;28;20079;-70
2022/01/07 09:28:43;;;;;;;28.52;5.97;;;24.40;84.90;;;;;;5030069;28;20036;-69
2022/01/07 09:31:14;;;;;;;27.65;5.13;;;24.40;84.90;;;;;;5031872;28;20021;-70
2022/01/07 09:33:42;;;;;;;30.67;5.63;;;24.30;84.70;;;;;;5031621;28;20120;-69
2022/01/07 09:36:10;;;;;;;31.15;5.88;;;24.40;84.70;;;;;;5014103;28;20423;-69
2022/01/07 09:38:37;;;;;;;32.95;5.43;;;24.30;84.90;;;;;;5031183;28;20052;-70
2022/01/07 09:41:07;;;;;;;36.17;6.35;;;24.30;84.90;;;;;;5014034;28;20045;-69
2022/01/07 09:43:37;;;;;;;33.45;7.43;;;24.30;84.80;;;;;;5031252;28;20117;-69
2022/01/07 09:46:05;;;;;;;29.90;6.38;;;24.30;84.70;;;;;;5031738;28;20032;-69
2022/01/07 09:48:37;;;;;;;31.08;6.18;;;24.30;84.80;;;;;;5033846;28;20112;-68
2022/01/07 09:51:04;;;;;;;31.63;6.38;;;24.30;84.80;;;;;;5035800;28;20434;-69
2022/01/07 09:53:31;;;;;;;32.95;6.90;;;24.40;84.80;;;;;;5035765;28;20037;-68
2022/01/07 09:56:03;;;;;;;37.58;5.93;;;24.30;84.90;;;;;;5034479;28;20057;-69
2022/01/07 09:58:33;;;;;;;34.10;6.35;;;24.30;84.70;;;;;;5034547;28;20028;-69
2022/01/07 10:01:06;;;;;;;34.50;6.65;;;24.30;84.80;;;;;;5035125;28;20056;-69
2022/01/07 10:03:43;;;;;;;35.33;6.07;;;24.30;84.70;;;;;;5035426;28;20045;-69
2022/01/07 10:06:27;;;;;;;31.98;5.85;;;24.40;84.70;;;;;;5034103;28;20030;-69
2022/01/07 10:09:10;;;;;;;31.70;7.00;;;24.30;84.70;;;;;;5030765;28;20451;-69
2022/01/07 10:11:44;;;;;;;30.83;5.50;;;24.30;84.60;;;;;;5001327;28;20108;-69
2022/01/07 10:14:22;;;;;;;27.17;6.32;;;24.40;84.60;;;;;;5035351;28;20097;-70
2022/01/07 10:16:51;;;;;;;29.27;6.05;;;24.30;84.50;;;;;;5017342;28;20036;-69
2022/01/07 10:19:37;;;;;;;32.47;5.97;;;24.30;84.60;;;;;;5030540;28;20130;-70
2022/01/07 10:22:10;;;;;;;28.42;6.10;;;24.30;84.60;;;;;;5015432;28;20388;-69
2022/01/07 10:25:01;;;;;;;29.08;5.28;;;24.30;84.70;;;;;;5015495;28;20091;-69
2022/01/07 10:27:39;;;;;;;30.55;5.43;;;24.30;84.70;;;;;;5007020;28;20045;-68
2022/01/07 10:30:17;;;;;;;23.52;5.63;;;24.30;84.70;;;;;;5013993;28;20036;-69
2022/01/07 10:33:24;;;;;;;33.67;5.88;;;24.30;85.00;;;;;;5015128;28;20503;-69
2022/01/07 10:36:00;;;;;;;34.47;7.40;;;24.30;85.00;;;;;;5014764;28;20038;-69
2022/01/07 10:38:30;;;;;;;24.05;5.47;;;24.30;85.00;;;;;;5014034;28;20037;-70
2022/01/07 10:41:01;;;;;;;30.58;6.07;;;24.30;84.90;;;;;;5014777;28;20022;-69
2022/01/07 10:43:32;;;;;;;30.83;6.60;;;24.30;85.00;;;;;;5013518;28;20447;-70
2022/01/07 10:46:02;;;;;;;32.60;6.10;;;24.30;85.00;;;;;;5013842;28;20077;-70
2022/01/07 10:48:47;;;;;;;33.80;6.20;;;24.30;85.00;;;;;;5013691;28;20374;-69
2022/01/07 10:51:15;;;;;;;36.10;6.72;;;24.20;85.10;;;;;;4999467;28;20022;-70
2022/01/07 10:53:49;;;;;;;31.08;6.75;;;24.30;85.30;;;;;;5014676;28;20469;-71
2022/01/07 10:56:17;;;;;;;39.42;6.70;;;24.20;85.20;;;;;;5015048;28;20029;-70
2022/01/07 10:58:50;;;;;;;33.40;6.10;;;24.20;85.20;;;;;;5014550;28;20029;-69
2022/01/07 11:01:27;;;;;;;30.75;6.00;;;24.20;85.40;;;;;;5014633;28;20022;-69
2022/01/07 11:03:58;;;;;;;31.25;6.25;;;24.20;85.30;;;;;;4997024;28;20481;-70
2022/01/07 11:06:27;;;;;;;35.40;7.00;;;24.20;85.30;;;;;;5014366;28;20026;-69
2022/01/07 11:08:55;;;;;;;31.83;5.97;;;24.20;85.40;;;;;;4997035;28;20029;-70
2022/01/07 11:11:28;;;;;;;27.33;5.03;;;24.20;85.40;;;;;;5012772;28;20052;-69
2022/01/07 11:14:08;;;;;;;30.23;6.57;;;24.20;85.40;;;;;;5012649;28;20073;-68
2022/01/07 11:16:39;;;;;;;28.38;5.63;;;24.20;85.40;;;;;;5013317;28;20024;-69
2022/01/07 11:19:07;;;;;;;28.60;5.85;;;24.20;85.40;;;;;;5013144;28;20408;-69
2022/01/07 11:21:35;;;;;;;30.80;6.60;;;24.20;85.40;;;;;;5012974;28;20065;-70
2022/01/07 11:24:38;;;;;;;36.55;5.97;;;24.20;85.40;;;;;;5012999;28;20037;-69
2022/01/07 11:27:11;;;;;;;30.55;5.97;;;24.20;85.40;;;;;;5013910;28;20106;-69
2022/01/07 11:30:11;;;;;;;35.08;7.40;;;24.20;85.40;;;;;;5014051;28;20475;-70
2022/01/07 11:32:42;;;;;;;33.83;6.75;;;24.20;85.30;;;;;;5012295;28;20046;-69
2022/01/07 11:35:23;;;;;;;32.05;5.78;;;24.20;85.40;;;;;;5013984;28;20021;-70
2022/01/07 11:37:51;;;;;;;33.95;5.88;;;24.20;85.30;;;;;;5014104;28;20030;-70
2022/01/07 11:40:47;;;;;;;32.65;5.97;;;24.20;85.30;;;;;;5013633;28;20026;-70
2022/01/07 11:43:31;;;;;;;26.33;5.18;;;24.20;85.40;;;;;;5004114;28;20030;-70
2022/01/07 11:46:19;;;;;;;27.65;5.32;;;24.20;85.40;;;;;;5013682;28;20515;-70
2022/01/07 11:48:46;;;;;;;27.10;5.70;;;24.20;85.50;;;;;;5013460;28;20439;-70
2022/01/07 11:51:14;;;;;;;24.48;5.53;;;24.20;85.40;;;;;;5013686;28;20025;-70
2022/01/07 11:53:42;;;;;;;32.50;5.72;;;24.20;85.50;;;;;;5013536;28;20121;-69
2022/01/07 11:56:13;;;;;;;31.92;6.10;;;24.20;85.40;;;;;;5013390;28;20033;-69
2022/01/07 11:59:10;;;;;;;27.08;5.78;;;24.20;85.30;;;;;;5012024;28;20045;-69
2022/01/07 12:01:40;;;;;;;38.00;6.13;;;24.20;85.40;;;;;;5012027;28;20110;-70
2022/01/07 12:04:28;;;;;;;27.90;5.40;;;24.20;85.40;;;;;;5012120;28;20387;-70
2022/01/07 12:06:59;;;;;;;32.67;5.53;;;24.20;85.40;;;;;;5012083;28;20108;-70
2022/01/07 12:09:34;;;;;;;28.88;6.03;;;24.10;85.40;;;;;;5013524;28;20022;-69
2022/01/07 12:12:16;;;;;;;27.63;6.60;;;24.10;85.40;;;;;;5012748;28;20048;-70
2022/01/07 12:14:45;;;;;;;34.08;6.40;;;24.20;85.50;;;;;;4996306;28;20052;-70
2022/01/07 12:17:17;;;;;;;28.30;5.72;;;24.10;85.50;;;;;;4996254;28;20426;-70
2022/01/07 12:19:51;;;;;;;28.25;5.65;;;24.10;85.60;;;;;;5008191;28;20129;-70
2022/01/07 12:22:20;;;;;;;35.20;6.45;;;24.10;85.60;;;;;;4993836;28;20050;-71
2022/01/07 12:24:49;;;;;;;31.42;6.07;;;24.20;85.50;;;;;;4992263;28;20525;-70
2022/01/07 12:27:20;;;;;;;33.00;5.32;;;24.10;85.40;;;;;;4993476;28;20057;-70
2022/01/07 12:29:54;;;;;;;25.85;4.70;;;24.10;85.60;;;;;;4993203;28;20544;-70
2022/01/07 12:32:30;;;;;;;32.40;6.57;;;24.10;85.60;;;;;;4976939;28;20053;-70
2022/01/07 12:34:57;;;;;;;26.80;5.28;;;24.10;85.60;;;;;;4993502;28;20019;-70
2022/01/07 12:37:27;;;;;;;26.97;5.77;;;24.20;85.50;;;;;;4993050;28;20038;-70
2022/01/07 12:39:56;;;;;;;25.38;5.53;;;24.10;85.50;;;;;;4991973;28;20018;-70
2022/01/07 12:42:25;;;;;;;33.33;5.55;;;24.20;85.60;;;;;;4992849;28;20425;-70
2022/01/07 12:44:54;;;;;;;25.30;6.25;;;24.10;85.50;;;;;;4991744;28;20058;-70
2022/01/07 12:47:26;;;;;;;20.80;5.53;;;24.10;85.40;;;;;;4993270;28;20053;-70
2022/01/07 12:49:57;;;;;;;34.10;6.13;;;24.10;85.30;;;;;;4991972;28;20040;-70
2022/01/07 12:52:34;;;;;;;31.15;5.43;;;24.10;85.30;;;;;;4992834;28;20101;-70
2022/01/07 12:55:12;;;;;;;33.17;5.72;;;24.10;85.30;;;;;;4992854;28;20509;-70
2022/01/07 12:58:08;;;;;;;30.10;5.32;;;24.10;85.40;;;;;;4993053;28;20364;-70
2022/01/07 13:00:36;;;;;;;50.60;9.43;;;24.10;85.50;;;;;;4992955;28;20113;-70
2022/01/07 13:03:06;;;;;;;61.58;10.55;;;24.00;87.60;;;;;;4992993;28;20026;-72